Pilot No. 4 — WDA5463 — position and weather

sailwx.info

Track history (hours):
 
Tides and Currents Weather Stations Pressure Air Temp Water Temp Dewpoint Dewpoint Depression Visibility Wind Speed Wind Dir Waves Ship Positions

Pilot No. 4

Owner: P E P Inc, FORT LAUDERDALE, FL. More information available from US FCC via Universal Licensing System and Coast Guard Vessel Documentation Center.

Last reported at 2018-Feb-18 03:47 UTC. Time now 2018-Feb-20 10:10 UTC.
Position N 26°06' W 080°07'.

MMSI: 495270931.

Date/timePositionNaut miles runAvg speedWind from/ knotsBaromVisibWave heightAir tempDewpointWater temp
2018-Feb-18 03:47N 26°06' W 080°07'0 0.5
2018-Feb-18 03:30N 26°06' W 080°07'1 1.2
2018-Feb-18 03:00N 26°06' W 080°07'0 0.6
2018-Feb-18 02:30N 26°06' W 080°07'0 0.6
2018-Feb-18 02:00N 26°06' W 080°07'0 0.4
2018-Feb-18 01:31N 26°06' W 080°07'3 6.1
2018-Feb-18 01:00N 26°06' W 080°04'3 6.0
2018-Feb-18 00:30N 26°05' W 080°07'0 0.1
2018-Feb-18 00:00N 26°05' W 080°07'0 0.7
2018-Feb-17 23:31N 26°06' W 080°07'1 2.5
2018-Feb-17 23:00N 26°06' W 080°05'1 2.8
2018-Feb-17 22:30N 26°06' W 080°07'0 0.7
2018-Feb-17 22:01N 26°05' W 080°07'0 0.8
2018-Feb-17 21:30N 26°06' W 080°07'0 0.6
2018-Feb-17 21:00N 26°06' W 080°07'1 1.0
2018-Feb-17 20:24N 26°06' W 080°07'0 0.0
2018-Feb-16 14:22N 26°06' W 080°07'1 1.6
2018-Feb-16 14:00N 26°05' W 080°07'0 0.9
2018-Feb-16 13:30N 26°05' W 080°07'4 7.6
2018-Feb-16 13:00N 26°06' W 080°03'4 0.5
2018-Feb-16 04:51N 26°06' W 080°07'2 7.0
2018-Feb-16 04:30N 26°04' W 080°07'1 2.8
2018-Feb-16 04:00N 26°05' W 080°07'1 1.7
2018-Feb-16 03:30N 26°06' W 080°07'0 0.5
2018-Feb-16 02:47N 26°06' W 080°07'1 2.5
2018-Feb-16 02:30N 26°06' W 080°07'3 5.0
2018-Feb-16 02:00N 26°06' W 080°04'1 1.2
2018-Feb-16 01:30N 26°06' W 080°04'3 6.1
2018-Feb-16 01:00N 26°05' W 080°07'0 0.2
2018-Feb-16 00:30N 26°05' W 080°07'3 6.9
2018-Feb-16 00:00N 26°06' W 080°03'4 7.2
2018-Feb-15 23:30N 26°05' W 080°07'0 0.9
2018-Feb-15 23:00N 26°06' W 080°07'0 0.2
2018-Feb-15 22:30N 26°06' W 080°07'0 0.4
2018-Feb-15 22:00N 26°05' W 080°07'0 0.5
2018-Feb-15 21:30N 26°06' W 080°07'1 2.8
2018-Feb-15 21:00N 26°06' W 080°05'2 4.1
2018-Feb-15 20:31N 26°05' W 080°07'0 0.1
2018-Feb-15 13:14N 26°06' W 080°07'1 6.6
2018-Feb-15 13:00N 26°06' W 080°06'1 3.0
2018-Feb-15 12:30N 26°06' W 080°07'2 4.8
2018-Feb-15 12:00N 26°06' W 080°05'2 3.7
2018-Feb-15 11:31N 26°06' W 080°03'4 7.8
2018-Feb-15 11:00N 26°05' W 080°07'1 0.0
2018-Feb-13 12:29N 26°06' W 080°07'3 5.6
2018-Feb-13 12:00N 26°05' W 080°04'2 4.9
2018-Feb-13 11:30N 26°05' W 080°07'0 0.4
2018-Feb-13 11:00N 26°06' W 080°07'1 1.7
2018-Feb-13 10:30N 26°05' W 080°07'1 1.7
2018-Feb-13 10:00N 26°06' W 080°07'1 0.3
2018-Feb-13 08:01N 26°06' W 080°07'0 5.7
2018-Feb-13 08:00N 26°06' W 080°07'1 1.0
2018-Feb-13 07:30N 26°06' W 080°07'1 2.6
2018-Feb-13 07:00N 26°04' W 080°07'1 1.8
2018-Feb-13 06:31N 26°05' W 080°07'1 1.1
2018-Feb-13 06:00N 26°06' W 080°06'1 1.3
2018-Feb-13 05:31N 26°05' W 080°07'2 3.5
2018-Feb-13 04:58N 26°06' W 080°05'2 0.2
2018-Feb-12 19:04N 26°06' W 080°07'0 4.2
2018-Feb-12 19:00N 26°06' W 080°07'0 0.8
2018-Feb-12 18:30N 26°06' W 080°07'1 0.2
2018-Feb-12 14:38N 26°06' W 080°07'1 4.0
2018-Feb-12 14:30N 26°06' W 080°07'4 7.5
2018-Feb-12 14:00N 26°06' W 080°03'4 7.5
2018-Feb-12 13:31N 26°05' W 080°07'2 3.3
2018-Feb-12 13:01N 26°05' W 080°05'0 0.7
2018-Feb-12 12:30N 26°06' W 080°05'2 3.7
2018-Feb-12 11:57N 26°06' W 080°07'3 5.7
2018-Feb-12 11:30N 26°06' W 080°05'1 2.1
2018-Feb-12 11:00N 26°05' W 080°06'0 0.1
2018-Feb-12 10:31N 26°05' W 080°06'2 3.1
2018-Feb-12 10:01N 26°04' W 080°07'3 6.9
2018-Feb-12 09:30N 26°06' W 080°03'3 6.5
2018-Feb-12 09:00N 26°05' W 080°07'4 7.3
2018-Feb-12 08:31N 26°06' W 080°03'4 7.2
2018-Feb-12 08:00N 26°05' W 080°07'1 0.3
2018-Feb-12 02:43N 26°06' W 080°07'1 5.2
2018-Feb-12 02:30N 26°06' W 080°06'2 3.4
2018-Feb-12 02:00N 26°06' W 080°04'2 4.9
2018-Feb-12 01:30N 26°06' W 080°07'1 2.6
2018-Feb-12 01:00N 26°05' W 080°07'1 1.7
2018-Feb-12 00:30N 26°05' W 080°07'2 3.1
2018-Feb-12 00:00N 26°06' W 080°05'2 3.3
2018-Feb-11 23:30N 26°05' W 080°07'3 6.7
2018-Feb-11 23:01N 26°06' W 080°04'2 3.1
2018-Feb-11 22:31N 26°06' W 080°05'2 3.4
2018-Feb-11 22:00N 26°06' W 080°07'2 3.2
2018-Feb-11 21:30N 26°06' W 080°05'1 3.0
2018-Feb-11 21:00N 26°06' W 080°07'0 0.0
2018-Feb-11 11:24N 26°06' W 080°07'3 7.1
2018-Feb-11 11:00N 26°06' W 080°04'3 5.2
2018-Feb-11 10:30N 26°06' W 080°07'4 8.3
2018-Feb-11 10:00N 26°06' W 080°03'1 2.6
2018-Feb-11 09:30N 26°06' W 080°04'3 5.8
2018-Feb-11 09:00N 26°06' W 080°07'3 5.4
2018-Feb-11 08:30N 26°07' W 080°04'3 6.7
2018-Feb-11 08:01N 26°04' W 080°07'1 1.5
2018-Feb-11 07:30N 26°05' W 080°07'2 4.1
2018-Feb-11 07:00N 26°06' W 080°05'1 1.3
2018-Feb-11 06:30N 26°06' W 080°05'2 3.1
2018-Feb-11 06:00N 26°05' W 080°07'2 3.4
2018-Feb-11 05:30N 26°06' W 080°05'1 1.3
2018-Feb-11 05:01N 26°05' W 080°05'2 3.4
2018-Feb-11 04:31N 26°06' W 080°07'1 0.0
2018-Feb-10 04:06N 26°06' W 080°07'1 6.4
2018-Feb-10 04:00N 26°06' W 080°07'1 2.7
2018-Feb-10 03:30N 26°06' W 080°05'1 2.9
2018-Feb-10 03:01N 26°06' W 080°07'0 0.6
2018-Feb-10 02:08N 26°06' W 080°07'1 5.0
2018-Feb-10 02:00N 26°06' W 080°07'0 0.2
2018-Feb-10 01:31N 26°06' W 080°07'1 1.5
2018-Feb-10 01:00N 26°06' W 080°06'0 0.9
2018-Feb-10 00:30N 26°06' W 080°07'0 0.9
2018-Feb-10 00:01N 26°06' W 080°07'1 1.2
2018-Feb-09 23:29N 26°06' W 080°07'1 2.3
2018-Feb-09 23:00N 26°06' W 080°06'1 2.1
2018-Feb-09 22:46N 26°06' W 080°07'0 1.6
2018-Feb-09 22:30N 26°05' W 080°07'0 0.1
2018-Feb-09 21:00N 26°05' W 080°07'3 6.2
2018-Feb-09 20:30N 26°05' W 080°04'3 6.0
2018-Feb-09 20:00N 26°05' W 080°07'0 0.1
2018-Feb-09 17:31N 26°06' W 080°07'2 3.1
2018-Feb-09 17:01N 26°05' W 080°05'1 2.3
2018-Feb-09 16:30N 26°06' W 080°06'0 0.2
2018-Feb-09 16:00N 26°06' W 080°07'1 0.6
2018-Feb-09 14:01N 26°06' W 080°05'2 3.7
2018-Feb-09 13:30N 26°05' W 080°07'2 1.8
2018-Feb-09 12:30N 26°05' W 080°05'  
Track history (hours):
 
Tides and Currents Weather Stations Pressure Air Temp Water Temp Dewpoint Dewpoint Depression Visibility Wind Speed Wind Dir Waves Ship Positions

Pilot No. 4

Owner: P E P Inc, FORT LAUDERDALE, FL. More information available from US FCC via Universal Licensing System and Coast Guard Vessel Documentation Center.

Last reported at 2018-Feb-18 03:47 UTC. Time now 2018-Feb-20 10:10 UTC.
Position N 26°06' W 080°07'.

MMSI: 495270931.

Date/timePositionNaut miles runAvg speedWind from/ knotsBaromVisibWave heightAir tempDewpointWater temp
2018-Feb-18 03:47N 26°06' W 080°07'0 0.5
2018-Feb-18 03:30N 26°06' W 080°07'1 1.2
2018-Feb-18 03:00N 26°06' W 080°07'0 0.6
2018-Feb-18 02:30N 26°06' W 080°07'0 0.6
2018-Feb-18 02:00N 26°06' W 080°07'0 0.4
2018-Feb-18 01:31N 26°06' W 080°07'3 6.1
2018-Feb-18 01:00N 26°06' W 080°04'3 6.0
2018-Feb-18 00:30N 26°05' W 080°07'0 0.1
2018-Feb-18 00:00N 26°05' W 080°07'0 0.7
2018-Feb-17 23:31N 26°06' W 080°07'1 2.5
2018-Feb-17 23:00N 26°06' W 080°05'1 2.8
2018-Feb-17 22:30N 26°06' W 080°07'0 0.7
2018-Feb-17 22:01N 26°05' W 080°07'0 0.8
2018-Feb-17 21:30N 26°06' W 080°07'0 0.6
2018-Feb-17 21:00N 26°06' W 080°07'1 1.0
2018-Feb-17 20:24N 26°06' W 080°07'0 0.0
2018-Feb-16 14:22N 26°06' W 080°07'1 1.6
2018-Feb-16 14:00N 26°05' W 080°07'0 0.9
2018-Feb-16 13:30N 26°05' W 080°07'4 7.6
2018-Feb-16 13:00N 26°06' W 080°03'4 0.5
2018-Feb-16 04:51N 26°06' W 080°07'2 7.0
2018-Feb-16 04:30N 26°04' W 080°07'1 2.8
2018-Feb-16 04:00N 26°05' W 080°07'1 1.7
2018-Feb-16 03:30N 26°06' W 080°07'0 0.5
2018-Feb-16 02:47N 26°06' W 080°07'1 2.5
2018-Feb-16 02:30N 26°06' W 080°07'3 5.0
2018-Feb-16 02:00N 26°06' W 080°04'1 1.2
2018-Feb-16 01:30N 26°06' W 080°04'3 6.1
2018-Feb-16 01:00N 26°05' W 080°07'0 0.2
2018-Feb-16 00:30N 26°05' W 080°07'3 6.9
2018-Feb-16 00:00N 26°06' W 080°03'4 7.2
2018-Feb-15 23:30N 26°05' W 080°07'0 0.9
2018-Feb-15 23:00N 26°06' W 080°07'0 0.2
2018-Feb-15 22:30N 26°06' W 080°07'0 0.4
2018-Feb-15 22:00N 26°05' W 080°07'0 0.5
2018-Feb-15 21:30N 26°06' W 080°07'1 2.8
2018-Feb-15 21:00N 26°06' W 080°05'2 4.1
2018-Feb-15 20:31N 26°05' W 080°07'0 0.1
2018-Feb-15 13:14N 26°06' W 080°07'1 6.6
2018-Feb-15 13:00N 26°06' W 080°06'1 3.0
2018-Feb-15 12:30N 26°06' W 080°07'2 4.8
2018-Feb-15 12:00N 26°06' W 080°05'2 3.7
2018-Feb-15 11:31N 26°06' W 080°03'4 7.8
2018-Feb-15 11:00N 26°05' W 080°07'1 0.0
2018-Feb-13 12:29N 26°06' W 080°07'3 5.6
2018-Feb-13 12:00N 26°05' W 080°04'2 4.9
2018-Feb-13 11:30N 26°05' W 080°07'0 0.4
2018-Feb-13 11:00N 26°06' W 080°07'1 1.7
2018-Feb-13 10:30N 26°05' W 080°07'1 1.7
2018-Feb-13 10:00N 26°06' W 080°07'1 0.3
2018-Feb-13 08:01N 26°06' W 080°07'0 5.7
2018-Feb-13 08:00N 26°06' W 080°07'1 1.0
2018-Feb-13 07:30N 26°06' W 080°07'1 2.6
2018-Feb-13 07:00N 26°04' W 080°07'1 1.8
2018-Feb-13 06:31N 26°05' W 080°07'1 1.1
2018-Feb-13 06:00N 26°06' W 080°06'1 1.3
2018-Feb-13 05:31N 26°05' W 080°07'2 3.5
2018-Feb-13 04:58N 26°06' W 080°05'2 0.2
2018-Feb-12 19:04N 26°06' W 080°07'0 4.2
2018-Feb-12 19:00N 26°06' W 080°07'0 0.8
2018-Feb-12 18:30N 26°06' W 080°07'1 0.2
2018-Feb-12 14:38N 26°06' W 080°07'1 4.0
2018-Feb-12 14:30N 26°06' W 080°07'4 7.5
2018-Feb-12 14:00N 26°06' W 080°03'4 7.5
2018-Feb-12 13:31N 26°05' W 080°07'2 3.3
2018-Feb-12 13:01N 26°05' W 080°05'0 0.7
2018-Feb-12 12:30N 26°06' W 080°05'2 3.7
2018-Feb-12 11:57N 26°06' W 080°07'3 5.7
2018-Feb-12 11:30N 26°06' W 080°05'1 2.1
2018-Feb-12 11:00N 26°05' W 080°06'0 0.1
2018-Feb-12 10:31N 26°05' W 080°06'2 3.1
2018-Feb-12 10:01N 26°04' W 080°07'3 6.9
2018-Feb-12 09:30N 26°06' W 080°03'3 6.5
2018-Feb-12 09:00N 26°05' W 080°07'4 7.3
2018-Feb-12 08:31N 26°06' W 080°03'4 7.2
2018-Feb-12 08:00N 26°05' W 080°07'1 0.3
2018-Feb-12 02:43N 26°06' W 080°07'1 5.2
2018-Feb-12 02:30N 26°06' W 080°06'2 3.4
2018-Feb-12 02:00N 26°06' W 080°04'2 4.9
2018-Feb-12 01:30N 26°06' W 080°07'1 2.6
2018-Feb-12 01:00N 26°05' W 080°07'1 1.7
2018-Feb-12 00:30N 26°05' W 080°07'2 3.1
2018-Feb-12 00:00N 26°06' W 080°05'2 3.3
2018-Feb-11 23:30N 26°05' W 080°07'3 6.7
2018-Feb-11 23:01N 26°06' W 080°04'2 3.1
2018-Feb-11 22:31N 26°06' W 080°05'2 3.4
2018-Feb-11 22:00N 26°06' W 080°07'2 3.2
2018-Feb-11 21:30N 26°06' W 080°05'1 3.0
2018-Feb-11 21:00N 26°06' W 080°07'0 0.0
2018-Feb-11 11:24N 26°06' W 080°07'3 7.1
2018-Feb-11 11:00N 26°06' W 080°04'3 5.2
2018-Feb-11 10:30N 26°06' W 080°07'4 8.3
2018-Feb-11 10:00N 26°06' W 080°03'1 2.6
2018-Feb-11 09:30N 26°06' W 080°04'3 5.8
2018-Feb-11 09:00N 26°06' W 080°07'3 5.4
2018-Feb-11 08:30N 26°07' W 080°04'3 6.7
2018-Feb-11 08:01N 26°04' W 080°07'1 1.5
2018-Feb-11 07:30N 26°05' W 080°07'2 4.1
2018-Feb-11 07:00N 26°06' W 080°05'1 1.3
2018-Feb-11 06:30N 26°06' W 080°05'2 3.1
2018-Feb-11 06:00N 26°05' W 080°07'2 3.4
2018-Feb-11 05:30N 26°06' W 080°05'1 1.3
2018-Feb-11 05:01N 26°05' W 080°05'2 3.4
2018-Feb-11 04:31N 26°06' W 080°07'1 0.0
2018-Feb-10 04:06N 26°06' W 080°07'1 6.4
2018-Feb-10 04:00N 26°06' W 080°07'1 2.7
2018-Feb-10 03:30N 26°06' W 080°05'1 2.9
2018-Feb-10 03:01N 26°06' W 080°07'0 0.6
2018-Feb-10 02:08N 26°06' W 080°07'1 5.0
2018-Feb-10 02:00N 26°06' W 080°07'0 0.2
2018-Feb-10 01:31N 26°06' W 080°07'1 1.5
2018-Feb-10 01:00N 26°06' W 080°06'0 0.9
2018-Feb-10 00:30N 26°06' W 080°07'0 0.9
2018-Feb-10 00:01N 26°06' W 080°07'1 1.2
2018-Feb-09 23:29N 26°06' W 080°07'1 2.3
2018-Feb-09 23:00N 26°06' W 080°06'1 2.1
2018-Feb-09 22:46N 26°06' W 080°07'0 1.6
2018-Feb-09 22:30N 26°05' W 080°07'0 0.1
2018-Feb-09 21:00N 26°05' W 080°07'3 6.2
2018-Feb-09 20:30N 26°05' W 080°04'3 6.0
2018-Feb-09 20:00N 26°05' W 080°07'0 0.1
2018-Feb-09 17:31N 26°06' W 080°07'2 3.1
2018-Feb-09 17:01N 26°05' W 080°05'1 2.3
2018-Feb-09 16:30N 26°06' W 080°06'0 0.2
2018-Feb-09 16:00N 26°06' W 080°07'1 0.6
2018-Feb-09 14:01N 26°06' W 080°05'2 3.7
2018-Feb-09 13:30N 26°05' W 080°07'2 1.8
2018-Feb-09 12:30N 26°05' W 080°05'  

Dump ship's entire track history